Airfield :
LOGIN :

Register | Disclaimer

   EN    FR    IT 

 










Legend :    VFR   Marginal VFR   IFR   Intensive IFR   Very Intensive IFR
Visi :
Ceiling :
>= 8 km
>= 3000ft
5 to 8 km
1000 to 3000 ft
1500m to 5 km
500 to 1000 ft
800 to 1500m
200 to 500 ft
< 800m
< 200 ft
Symbols :   Thunderstorms  Fog  Heavy snow  Heavy precipitations  Wind > 20 kt
SIGMETs :     Misc.  Thunderstorms  Icing  Turbulence  Mountain Waves  Volcanic Ashes






- Airport Elevation : 584 ft


LFPV - Villacoublay Vélizy

CURRENT METAR :
  • 050130Z AUTO 30004KT 9999 SCT033 OVC044 16/14 Q1012 NOSIG

EXPIRED METARs :
  • 050100Z AUTO 32006KT 9999 FEW033 OVC045 16/14 Q1012 NOSIG
  • 050030Z AUTO 31004KT 9999 FEW033 OVC047 16/14 Q1012 NOSIG
  • 050000Z AUTO 28004KT 9999 SCT036 OVC047 16/14 Q1012 NOSIG
  • 042330Z AUTO 26002KT 9999 FEW035 BKN048 16/14 Q1012 NOSIG
  • 042300Z AUTO 26001KT 9999 FEW028 BKN050 BKN066 16/14 Q1012 NOSIG

TAF TAF LFPV
Valid from the 04 at 21:00 until the 05 at 21:00 UTC


042000Z 0421/0521 17004KT 9999 OVC037 TX20/0515Z TN14/0503Z
TEMPO 0508/0510 4500 SHRA SCT030TCU
BECMG 0512/0514 -RA BKN020
TEMPO 0515/0518 21015G25KT
BECMG 0516/0518 OVC012



MET'MAP, your aeronautical weather chart ! - Copyright ORBIFLY December 2007 - Disclaimer

ORBIFLY MET'MAP TEAM :

Programming & Development : Alexandra Zaïnal
Concept & original design : Baudouin d'Aumeries
Assistance for programming : Marc-Olivier Méhu
Technical & hardware support : Manuel Goepfert

Contact : metmap@orbifly.com




SOURCES & CREDITS :

   NOAA